createdAt,value
2023-03-20T00:01:38.611Z,13.55
2023-03-20T00:06:38.300Z,16.38
2023-03-20T00:11:38.980Z,15.68
2023-03-20T00:16:35.745Z,16.38
2023-03-20T00:21:28.116Z,16.75
2023-03-20T00:26:25.204Z,17.90
2023-03-20T00:31:31.891Z,19.92
2023-03-20T00:36:28.385Z,23.70
2023-03-20T00:41:34.625Z,21.90
2023-03-20T00:46:27.064Z,21.33
2023-03-20T00:51:20.083Z,26.40
2023-03-20T00:56:30.335Z,22.33
2023-03-20T01:01:26.329Z,25.58
2023-03-20T10:09:56.847Z,21.77
2023-03-20T10:15:02.302Z,27.27
2023-03-20T10:24:51.298Z,21.67
2023-03-20T10:30:08.451Z,23.20
2023-03-20T10:40:14.335Z,31.13
2023-03-20T10:45:12.775Z,23.73
2023-03-20T10:50:22.111Z,23.80
2023-03-20T10:55:23.749Z,23.88
2023-03-20T11:00:26.282Z,26.87
2023-03-20T11:05:32.263Z,22.90
2023-03-20T11:10:24.905Z,25.33
2023-03-20T11:15:27.325Z,28.27
2023-03-20T11:20:19.233Z,19.90
2023-03-20T11:25:34.518Z,19.90
2023-03-20T11:30:32.649Z,15.75
2023-03-20T11:35:31.548Z,17.27
2023-03-20T11:40:27.801Z,21.60
2023-03-20T11:45:23.497Z,19.63
2023-03-20T11:50:34.488Z,17.38
2023-03-20T11:55:38.382Z,17.52
2023-03-20T12:00:41.382Z,16.15
2023-03-20T12:05:43.716Z,15.88
2023-03-20T12:10:41.012Z,17.42
2023-03-20T12:15:37.372Z,17.85
2023-03-20T12:20:46.452Z,17.38
2023-03-20T12:25:47.322Z,14.70
2023-03-20T12:30:59.273Z,15.57
2023-03-20T12:35:59.897Z,19.67
2023-03-20T12:40:57.058Z,16.05
2023-03-20T12:46:04.701Z,16.08
2023-03-20T12:51:13.767Z,17.80
2023-03-20T12:56:24.750Z,20.38
2023-03-20T13:01:24.319Z,24.20
2023-03-20T13:06:34.063Z,21.40
2023-03-20T13:11:37.032Z,22.35
2023-03-20T13:16:40.169Z,22.85
2023-03-20T13:21:51.117Z,21.58
2023-03-20T13:26:57.047Z,28.90
2023-03-20T13:32:02.919Z,27.38
2023-03-20T13:37:23.697Z,29.65
2023-03-20T13:42:19.955Z,38.63
2023-03-20T13:47:20.235Z,36.83
2023-03-20T13:52:23.524Z,35.97
2023-03-20T13:57:38.042Z,34.03
2023-03-20T14:02:46.026Z,36.40
2023-03-20T14:07:49.974Z,42.30
2023-03-20T14:12:39.854Z,35.67
2023-03-20T14:17:36.272Z,35.20
2023-03-20T14:22:36.878Z,40.00
2023-03-20T14:27:43.803Z,37.35
2023-03-20T14:32:41.154Z,35.45
2023-03-20T14:37:54.737Z,33.92
2023-03-20T14:42:58.422Z,29.60
2023-03-20T14:48:04.210Z,32.03
2023-03-20T14:53:09.137Z,31.85
2023-03-20T14:58:55.276Z,32.17
2023-03-20T15:04:07.619Z,29.25
2023-03-20T15:09:19.413Z,25.85
2023-03-20T15:14:28.166Z,19.13
2023-03-20T15:19:24.169Z,27.73
2023-03-20T15:24:24.753Z,21.40
2023-03-20T15:29:27.908Z,23.73
2023-03-20T15:34:29.122Z,20.17
2023-03-20T15:39:24.627Z,23.08
2023-03-20T15:44:39.646Z,23.88
2023-03-20T15:49:35.446Z,26.63
2023-03-20T15:54:26.111Z,21.67
2023-03-20T15:59:19.844Z,16.30
2023-03-20T16:04:18.017Z,19.38
2023-03-20T16:09:17.613Z,21.65
2023-03-20T16:14:26.648Z,26.30
2023-03-20T16:19:20.609Z,26.98
2023-03-20T16:24:14.139Z,26.08
2023-03-20T16:29:07.448Z,24.50
2023-03-20T16:34:06.949Z,21.30
2023-03-20T16:39:09.432Z,25.05
2023-03-20T16:44:09.582Z,31.80
2023-03-20T16:49:11.545Z,28.10
2023-03-20T16:54:06.226Z,28.63
2023-03-20T16:58:58.536Z,29.27
2023-03-20T17:04:02.015Z,31.65
2023-03-20T17:09:04.439Z,28.73
2023-03-20T17:13:58.585Z,30.27
2023-03-20T17:19:05.515Z,27.67
2023-03-20T17:23:57.291Z,32.47
2023-03-20T17:28:49.078Z,34.17
2023-03-20T17:33:46.403Z,26.48
2023-03-20T17:38:39.012Z,27.02
2023-03-20T17:43:36.954Z,27.30
2023-03-20T17:48:28.420Z,23.35
2023-03-20T17:53:34.747Z,23.97
2023-03-20T17:58:27.711Z,22.23
2023-03-20T18:03:40.846Z,22.23
2023-03-20T18:08:34.001Z,17.73
2023-03-20T18:13:31.090Z,21.55
2023-03-20T18:18:25.695Z,17.80
2023-03-20T18:23:20.919Z,18.00
2023-03-20T18:28:26.018Z,16.98
2023-03-20T18:33:17.247Z,16.10
2023-03-20T18:38:08.480Z,16.33
2023-03-20T18:42:59.745Z,17.50
2023-03-20T18:47:55.317Z,18.80
2023-03-20T18:52:51.719Z,15.93
2023-03-20T18:57:49.338Z,17.60
2023-03-20T19:02:40.951Z,21.03
2023-03-20T19:07:38.621Z,20.67
2023-03-20T19:12:32.521Z,21.98
2023-03-20T19:17:31.808Z,22.63
2023-03-20T19:22:29.557Z,23.15
2023-03-20T19:27:26.826Z,22.45
2023-03-20T19:32:19.299Z,26.13
2023-03-20T19:37:16.561Z,27.35
2023-03-20T19:42:45.297Z,25.23
2023-03-20T19:47:27.121Z,27.13
2023-03-20T19:52:28.626Z,22.95
2023-03-20T19:57:24.281Z,20.08
2023-03-20T20:02:20.187Z,21.83
2023-03-20T20:08:00.726Z,21.03
2023-03-20T20:12:31.381Z,20.40
2023-03-20T20:17:24.412Z,19.17
2023-03-20T20:22:26.504Z,21.27
2023-03-20T20:27:21.137Z,24.80
2023-03-20T20:32:18.067Z,21.40
2023-03-20T20:42:27.753Z,20.93
2023-03-20T20:47:26.176Z,20.53
2023-03-20T20:52:29.661Z,23.80
2023-03-20T20:57:42.060Z,24.30
2023-03-20T21:02:37.589Z,22.00
2023-03-20T21:07:32.776Z,22.77
2023-03-20T21:12:38.406Z,19.47
2023-03-20T21:17:33.668Z,22.17
2023-03-20T21:22:31.435Z,25.25
2023-03-20T21:27:31.554Z,22.65
2023-03-20T21:32:24.727Z,25.27
2023-03-20T21:42:39.857Z,21.73
2023-03-20T21:48:30.114Z,23.90
2023-03-20T22:03:43.987Z,23.87
2023-03-20T22:09:30.800Z,24.83
2023-03-20T22:14:49.342Z,23.30
2023-03-20T22:19:56.052Z,25.95
2023-03-20T22:24:59.408Z,23.52
2023-03-20T22:30:12.611Z,23.25
2023-03-20T22:35:33.186Z,24.00
2023-03-20T22:50:42.928Z,20.95
2023-03-20T22:55:40.156Z,21.02
2023-03-20T23:00:44.695Z,20.88
2023-03-20T23:05:38.805Z,18.95
2023-03-20T23:10:38.588Z,19.25
2023-03-20T23:15:43.457Z,19.65
2023-03-20T23:20:37.608Z,17.88
2023-03-20T23:25:39.282Z,18.15
2023-03-20T23:30:59.760Z,18.65
2023-03-20T23:36:14.068Z,21.63
2023-03-20T23:41:19.148Z,20.07
2023-03-20T23:46:18.602Z,19.30
2023-03-20T23:51:09.596Z,20.58
2023-03-20T23:56:02.308Z,21.40
